Terminal Aerodrome Forecast
Issued by NWS Upton, NY

Home | Current Version | Previous Version | Text Only | Print | Product List | Glossary On
Versions: 1 2 3 4 5 6 7 8 9 10 11 12 13 14 15 16 17 18 19 20 21 22 23 24 25 26
000
FTUS41 KOKX 312000 AAA
TAFJFK
TAF AMD
KJFK 312038Z 3121/0124 04010KT P6SM FEW020 BKN045 OVC150
      TEMPO 0100/0102 -RA BKN035
     FM010200 04012KT P6SM -RA OVC025
     FM010700 04015G22KT 5SM -RA BR OVC015
     FM011500 02020G30KT 3SM RA BR OVC010
     FM012000 36020G30KT 5SM -RA BR OVC015=

USA.gov is the U.S. government's official web portal to all federal, state and local government web resources and services.